Time;durP1;ratioP1;P1;durP2;ratioP2;P2;SDS_P1;SDS_P2;PMS_P1;PMS_P2;Temp;Humidity;BMP_temperature;BMP_pressure;BME280_temperature;BME280_humidity;BME280_pressure;Samples;Min_cycle;Max_cycle;Signal;HPM_P1;HPM_P2
2021/10/07 00:01:55;;;;;;;9.43;4.55;;;13.80;78.30;;;;;;5036297;28;20503;-83
2021/10/07 00:04:21;;;;;;;7.13;3.60;;;13.90;78.00;;;;;;5036156;28;20398;-83
2021/10/07 00:06:47;;;;;;;6.75;3.88;;;13.80;77.80;;;;;;5036538;28;20022;-84
2021/10/07 00:09:13;;;;;;;7.95;3.83;;;13.80;78.40;;;;;;5038732;28;20436;-83
2021/10/07 00:11:38;;;;;;;6.50;3.42;;;13.80;78.50;;;;;;5036316;28;20032;-84
2021/10/07 00:14:06;;;;;;;6.47;3.53;;;13.80;78.10;;;;;;5034663;28;20033;-83
2021/10/07 00:16:32;;;;;;;7.10;3.40;;;13.80;78.40;;;;;;5036267;28;20067;-83
2021/10/07 00:18:57;;;;;;;7.28;3.45;;;13.70;78.50;;;;;;5034638;28;20033;-83
2021/10/07 00:21:23;;;;;;;8.18;3.70;;;13.60;78.50;;;;;;5035848;28;20017;-83
2021/10/07 00:24:08;;;;;;;7.70;2.88;;;13.60;79.00;;;;;;5036857;28;20036;-83
2021/10/07 00:26:38;;;;;;;4.15;3.25;;;13.60;78.80;;;;;;5075710;28;20023;-83
2021/10/07 00:29:52;;;;;;;;;;;13.60;79.00;;;;;;5065761;28;20556;-83
2021/10/07 00:31:54;;;;;;;4.60;3.05;;;13.60;78.90;;;;;;5034655;28;19912;-83
2021/10/07 00:39:49;;;;;;;8.73;3.40;;;13.70;78.40;;;;;;5035580;28;20072;-83
2021/10/07 00:42:15;;;;;;;5.50;3.17;;;13.70;78.60;;;;;;5035956;28;20034;-83
2021/10/07 00:44:44;;;;;;;6.20;2.90;;;13.70;78.60;;;;;;5035700;28;20494;-83
2021/10/07 00:47:11;;;;;;;9.50;3.00;;;13.70;78.80;;;;;;5035351;28;20041;-82
2021/10/07 00:49:39;;;;;;;5.30;2.88;;;13.70;78.50;;;;;;5035527;28;20142;-83
2021/10/07 00:52:17;;;;;;;8.15;3.03;;;13.70;78.10;;;;;;5035486;28;20033;-83
2021/10/07 00:54:54;;;;;;;6.15;3.22;;;13.80;78.50;;;;;;5035545;28;20040;-83
2021/10/07 00:57:21;;;;;;;7.07;2.70;;;13.80;78.20;;;;;;5035470;28;20025;-83
2021/10/07 00:59:48;;;;;;;6.00;2.90;;;13.80;77.90;;;;;;5034086;28;20123;-82
2021/10/07 01:02:15;;;;;;;8.23;3.40;;;13.90;78.30;;;;;;5035396;28;20025;-83
2021/10/07 01:04:42;;;;;;;6.93;2.75;;;13.90;77.90;;;;;;5033859;28;20052;-82
2021/10/07 01:07:08;;;;;;;4.05;2.92;;;14.00;77.90;;;;;;5034009;28;20052;-82
2021/10/07 01:09:34;;;;;;;5.15;2.97;;;14.00;77.80;;;;;;5035374;28;20053;-83
2021/10/07 01:12:02;;;;;;;4.28;2.80;;;14.00;77.90;;;;;;5035113;28;20037;-83
2021/10/07 01:14:54;;;;;;;4.72;3.08;;;14.00;77.50;;;;;;5035355;28;20060;-82
2021/10/07 01:17:26;;;;;;;7.85;3.45;;;14.10;77.50;;;;;;5035105;28;20034;-82
2021/10/07 01:19:54;;;;;;;4.82;2.95;;;14.20;77.30;;;;;;5033885;28;20041;-83
2021/10/07 01:22:21;;;;;;;5.32;2.70;;;14.00;77.60;;;;;;5035284;28;20026;-83
2021/10/07 01:24:47;;;;;;;5.75;2.70;;;14.00;77.90;;;;;;5043851;28;20043;-82
2021/10/07 01:27:13;;;;;;;8.95;2.80;;;13.90;78.20;;;;;;5055288;28;20108;-83
2021/10/07 01:29:39;;;;;;;5.47;2.95;;;13.90;78.10;;;;;;5055152;28;20060;-83
2021/10/07 01:32:07;;;;;;;5.32;2.30;;;13.90;78.40;;;;;;5040121;28;20041;-83
2021/10/07 01:34:33;;;;;;;7.20;3.22;;;13.80;78.40;;;;;;5034620;28;20022;-82
2021/10/07 01:37:00;;;;;;;6.47;2.50;;;13.80;78.60;;;;;;5034774;28;20080;-82
2021/10/07 01:39:27;;;;;;;6.00;3.15;;;13.70;78.80;;;;;;5035088;28;20026;-83
2021/10/07 01:41:53;;;;;;;5.43;3.08;;;13.70;78.90;;;;;;5035247;28;20022;-83
2021/10/07 01:44:20;;;;;;;7.25;4.00;;;13.70;79.00;;;;;;5033556;28;20117;-82
2021/10/07 01:46:46;;;;;;;7.65;3.30;;;13.70;79.50;;;;;;5035002;28;20025;-83
2021/10/07 01:49:12;;;;;;;8.80;2.95;;;13.70;78.90;;;;;;5033741;28;20503;-83
2021/10/07 01:51:38;;;;;;;8.13;3.10;;;13.80;78.90;;;;;;5034994;28;20083;-83
2021/10/07 01:54:05;;;;;;;6.88;3.10;;;13.80;79.00;;;;;;5035050;28;20036;-82
2021/10/07 01:56:32;;;;;;;4.78;3.30;;;13.70;79.10;;;;;;5034757;28;20116;-83
2021/10/07 01:58:58;;;;;;;7.50;3.38;;;13.80;79.00;;;;;;5033160;28;20042;-83
2021/10/07 02:01:24;;;;;;;5.10;3.15;;;13.90;78.70;;;;;;5034738;28;20407;-83
2021/10/07 02:03:49;;;;;;;5.95;3.38;;;14.00;78.40;;;;;;5046969;28;20033;-83
2021/10/07 02:06:15;;;;;;;7.97;3.00;;;14.10;78.20;;;;;;5053008;28;20044;-83
2021/10/07 02:08:41;;;;;;;5.07;3.03;;;14.00;78.20;;;;;;5055804;28;20082;-83
2021/10/07 02:11:07;;;;;;;6.07;3.47;;;14.10;78.60;;;;;;5058408;28;20033;-83
2021/10/07 02:13:33;;;;;;;9.55;3.60;;;14.10;78.20;;;;;;5038520;28;20030;-83
2021/10/07 02:15:58;;;;;;;4.82;2.92;;;14.10;78.50;;;;;;5053359;28;20064;-82
2021/10/07 02:18:25;;;;;;;9.40;3.30;;;14.10;78.50;;;;;;5054434;28;20044;-83
2021/10/07 02:20:51;;;;;;;7.88;3.60;;;14.10;78.30;;;;;;5056771;28;20112;-83
2021/10/07 02:23:17;;;;;;;5.75;4.00;;;14.10;77.90;;;;;;5056778;28;20479;-82
2021/10/07 02:25:45;;;;;;;8.88;4.03;;;14.10;78.20;;;;;;5072545;28;20055;-82
2021/10/07 02:28:10;;;;;;;4.45;3.58;;;14.00;78.30;;;;;;5073084;28;20024;-83
2021/10/07 02:30:36;;;;;;;6.25;3.92;;;14.00;78.60;;;;;;5038032;28;20037;-83
2021/10/07 02:33:02;;;;;;;10.25;3.72;;;14.00;78.40;;;;;;5037939;28;20029;-82
2021/10/07 02:35:27;;;;;;;10.18;3.88;;;14.00;78.80;;;;;;5038095;28;20025;-82
2021/10/07 02:37:54;;;;;;;7.43;4.13;;;13.90;78.90;;;;;;5038184;28;20032;-82
2021/10/07 02:40:19;;;;;;;9.05;4.63;;;13.90;79.00;;;;;;5053763;28;20037;-82
2021/10/07 02:42:48;;;;;;;4.45;3.22;;;13.80;79.20;;;;;;5038575;28;20551;-82
2021/10/07 02:45:16;;;;;;;7.72;3.45;;;13.70;79.20;;;;;;5037945;28;20052;-83
2021/10/07 02:47:42;;;;;;;6.82;4.07;;;13.70;79.50;;;;;;5037334;28;20052;-82
2021/10/07 02:50:10;;;;;;;5.70;3.25;;;13.60;80.00;;;;;;5052936;28;20116;-82
2021/10/07 02:52:36;;;;;;;8.57;4.10;;;13.50;80.30;;;;;;5052897;28;20343;-83
2021/10/07 02:55:03;;;;;;;10.05;3.83;;;13.60;80.30;;;;;;5036295;28;20037;-82
2021/10/07 02:57:29;;;;;;;8.57;3.90;;;13.60;80.80;;;;;;5037591;28;20079;-82
2021/10/07 02:59:54;;;;;;;6.35;3.72;;;13.50;80.60;;;;;;5037453;28;20033;-83
2021/10/07 03:02:20;;;;;;;7.60;4.13;;;13.50;80.60;;;;;;5045053;28;20511;-83
2021/10/07 03:04:46;;;;;;;6.80;3.40;;;13.50;80.70;;;;;;5037478;28;20037;-83
2021/10/07 03:07:12;;;;;;;9.00;3.88;;;13.60;80.50;;;;;;5037336;28;20021;-83
2021/10/07 03:09:41;;;;;;;6.95;4.38;;;13.60;80.30;;;;;;5036098;28;20534;-83
2021/10/07 03:12:07;;;;;;;6.75;4.22;;;13.70;80.50;;;;;;5037232;28;20025;-84
2021/10/07 03:14:34;;;;;;;8.43;4.03;;;13.70;80.00;;;;;;5037413;28;20033;-83
2021/10/07 03:17:00;;;;;;;7.60;4.05;;;13.70;80.40;;;;;;5037043;28;20079;-83
2021/10/07 03:19:26;;;;;;;8.35;3.75;;;13.80;80.40;;;;;;5036300;28;20539;-83
2021/10/07 03:21:51;;;;;;;6.53;3.83;;;13.70;80.20;;;;;;5037182;28;20025;-82
2021/10/07 03:24:17;;;;;;;7.40;4.07;;;13.70;80.40;;;;;;5045867;28;20020;-83
2021/10/07 03:26:43;;;;;;;11.57;3.85;;;13.80;80.20;;;;;;5076935;28;20025;-83
2021/10/07 03:29:09;;;;;;;5.90;3.97;;;13.70;80.20;;;;;;5061442;28;20399;-83
2021/10/07 03:31:34;;;;;;;10.10;3.95;;;13.80;80.20;;;;;;5035521;28;20029;-83
2021/10/07 03:34:02;;;;;;;12.38;4.40;;;13.90;79.90;;;;;;5036686;28;20034;-83
2021/10/07 03:36:28;;;;;;;9.40;3.85;;;13.80;79.90;;;;;;5036863;28;20049;-82
2021/10/07 03:38:54;;;;;;;6.80;4.10;;;13.80;80.10;;;;;;5036833;28;20030;-83
2021/10/07 03:41:19;;;;;;;6.47;3.80;;;13.80;80.40;;;;;;5036637;28;20033;-83
2021/10/07 03:43:45;;;;;;;7.68;4.18;;;13.90;80.40;;;;;;5036459;28;20030;-82
2021/10/07 03:46:11;;;;;;;5.72;3.78;;;14.00;79.90;;;;;;5036291;28;20013;-83
2021/10/07 03:48:36;;;;;;;9.02;3.97;;;14.00;79.70;;;;;;5051718;28;20061;-83
2021/10/07 03:51:06;;;;;;;13.73;4.18;;;14.10;79.60;;;;;;5035236;28;20035;-82
2021/10/07 03:53:31;;;;;;;7.83;4.17;;;14.10;79.40;;;;;;5045349;28;20029;-83
2021/10/07 03:55:57;;;;;;;6.05;4.07;;;14.10;79.70;;;;;;5038671;28;20109;-82
2021/10/07 03:58:23;;;;;;;10.15;4.50;;;14.10;79.70;;;;;;5036249;28;20075;-82
2021/10/07 04:00:48;;;;;;;9.95;3.95;;;14.10;80.10;;;;;;5036012;28;20492;-83
2021/10/07 04:03:14;;;;;;;7.05;3.70;;;14.10;79.80;;;;;;5036264;28;20076;-83
2021/10/07 04:05:40;;;;;;;6.05;3.97;;;14.00;80.10;;;;;;5035178;28;20037;-83
2021/10/07 04:08:07;;;;;;;6.68;3.70;;;14.10;80.10;;;;;;5035974;28;20021;-83
2021/10/07 04:10:33;;;;;;;9.00;3.90;;;14.10;79.90;;;;;;5036125;28;20402;-83
2021/10/07 04:12:59;;;;;;;7.80;3.45;;;14.20;80.10;;;;;;5036336;28;20096;-83
2021/10/07 04:15:25;;;;;;;7.75;3.80;;;14.10;79.90;;;;;;5054311;28;20113;-83
2021/10/07 04:17:51;;;;;;;7.80;3.53;;;14.10;80.10;;;;;;5053631;28;20113;-83
2021/10/07 04:20:17;;;;;;;6.35;4.18;;;14.10;80.10;;;;;;5035912;28;20041;-83
2021/10/07 04:22:42;;;;;;;10.02;3.50;;;14.20;80.00;;;;;;5034847;28;20121;-83
2021/10/07 04:25:08;;;;;;;9.27;3.78;;;14.20;79.80;;;;;;5048071;28;20029;-83
2021/10/07 04:27:34;;;;;;;6.38;3.42;;;14.20;79.80;;;;;;5034517;28;20022;-84
2021/10/07 04:30:03;;;;;;;8.82;3.58;;;14.20;79.80;;;;;;5035539;28;20037;-83
2021/10/07 04:32:29;;;;;;;5.72;3.85;;;14.10;79.60;;;;;;5035529;28;20020;-83
2021/10/07 04:34:55;;;;;;;8.48;3.63;;;14.10;80.30;;;;;;5035544;28;20038;-83
2021/10/07 04:37:20;;;;;;;10.93;3.60;;;14.00;80.60;;;;;;5035722;28;20029;-83
2021/10/07 04:39:46;;;;;;;6.13;3.85;;;14.00;80.70;;;;;;5047180;28;20120;-84
2021/10/07 04:42:32;;;;;;;7.35;3.55;;;14.00;80.90;;;;;;5035977;28;20018;-85
2021/10/07 04:44:57;;;;;;;8.18;3.70;;;14.00;81.00;;;;;;5035982;28;20136;-84
2021/10/07 04:47:23;;;;;;;7.32;3.80;;;14.10;80.60;;;;;;5050939;28;20069;-88
2021/10/07 04:49:49;;;;;;;7.22;3.67;;;14.10;80.40;;;;;;5042926;28;20480;-84
2021/10/07 04:52:16;;;;;;;9.07;4.00;;;14.10;80.70;;;;;;5053530;28;20052;-89
2021/10/07 04:54:41;;;;;;;7.03;3.22;;;14.20;80.40;;;;;;5055497;28;20025;-86
2021/10/07 04:57:07;;;;;;;5.70;3.40;;;14.30;80.30;;;;;;5055497;28;20033;-87
2021/10/07 04:59:33;;;;;;;5.70;3.50;;;14.20;80.00;;;;;;5056030;28;20021;-88
2021/10/07 05:01:58;;;;;;;10.95;4.00;;;14.20;80.20;;;;;;5040043;28;20056;-87
2021/10/07 05:04:24;;;;;;;8.35;3.67;;;14.30;79.90;;;;;;5035291;28;20550;-82
2021/10/07 05:06:50;;;;;;;6.55;3.60;;;14.20;79.90;;;;;;5035787;28;20018;-84
2021/10/07 05:09:19;;;;;;;6.47;3.47;;;14.20;80.10;;;;;;5034238;28;20106;-83
2021/10/07 05:11:44;;;;;;;9.95;3.15;;;14.20;80.40;;;;;;5036996;28;20399;-82
2021/10/07 05:14:10;;;;;;;7.05;3.60;;;14.10;80.40;;;;;;5033890;28;20033;-78
2021/10/07 05:16:36;;;;;;;7.43;3.85;;;14.00;80.80;;;;;;5039631;28;20086;-84
2021/10/07 05:19:01;;;;;;;7.43;3.63;;;14.00;81.00;;;;;;5048806;28;20029;-83
2021/10/07 05:21:27;;;;;;;5.78;3.95;;;14.00;81.30;;;;;;5055126;28;20033;-84
2021/10/07 05:23:53;;;;;;;8.13;3.38;;;14.00;81.20;;;;;;5043726;28;20074;-90
2021/10/07 05:26:18;;;;;;;10.50;5.18;;;14.10;80.90;;;;;;5053165;28;20029;-84
2021/10/07 05:28:44;;;;;;;6.60;4.13;;;14.20;80.90;;;;;;5041977;28;20037;-85
2021/10/07 05:31:11;;;;;;;6.22;3.47;;;14.20;80.70;;;;;;5034676;28;20088;-82
2021/10/07 05:33:36;;;;;;;12.07;3.55;;;14.20;80.70;;;;;;5033257;28;21066;-82
2021/10/07 05:36:03;;;;;;;6.57;3.47;;;14.10;80.90;;;;;;5026649;28;20026;-82
2021/10/07 05:38:29;;;;;;;7.32;3.65;;;14.10;80.90;;;;;;5034586;28;20096;-82
2021/10/07 05:40:55;;;;;;;12.13;4.00;;;14.00;81.20;;;;;;5034593;28;20526;-82
2021/10/07 05:43:21;;;;;;;8.30;3.92;;;14.00;81.20;;;;;;5049650;28;20618;-82
2021/10/07 05:45:46;;;;;;;5.15;3.50;;;14.00;81.30;;;;;;5036565;28;20044;-82
2021/10/07 05:48:12;;;;;;;9.00;3.65;;;14.20;81.10;;;;;;5038579;28;20045;-83
2021/10/07 05:50:40;;;;;;;7.40;3.78;;;14.10;81.00;;;;;;5037340;28;20021;-83
2021/10/07 05:53:06;;;;;;;7.40;3.17;;;14.10;81.10;;;;;;5036789;28;20018;-83
2021/10/07 05:55:32;;;;;;;6.95;3.20;;;14.20;80.90;;;;;;5038357;28;20087;-83
2021/10/07 05:57:58;;;;;;;8.82;3.40;;;14.20;81.10;;;;;;5054272;28;20052;-83
2021/10/07 06:00:23;;;;;;;5.32;3.17;;;14.20;80.80;;;;;;5038368;28;20073;-83
2021/10/07 06:02:49;;;;;;;3.58;2.63;;;14.30;80.70;;;;;;5038379;28;20029;-83
2021/10/07 06:05:15;;;;;;;6.82;3.13;;;14.30;80.40;;;;;;5038470;28;20701;-83
2021/10/07 06:07:46;;;;;;;6.45;2.80;;;14.30;80.30;;;;;;5038501;28;20025;-83
2021/10/07 06:10:14;;;;;;;10.95;3.55;;;14.40;80.50;;;;;;5038313;28;20044;-83
2021/10/07 06:12:41;;;;;;;8.13;3.00;;;14.40;80.30;;;;;;5038067;28;20022;-83
2021/10/07 06:15:07;;;;;;;7.95;2.95;;;14.40;80.20;;;;;;5038309;28;20037;-83
2021/10/07 06:17:34;;;;;;;11.43;3.50;;;14.40;80.50;;;;;;5038368;28;20112;-83
2021/10/07 06:20:06;;;;;;;8.60;3.20;;;14.40;80.60;;;;;;5037961;28;20025;-83
2021/10/07 06:22:32;;;;;;;8.13;2.97;;;14.40;80.80;;;;;;5038239;28;20044;-82
2021/10/07 06:25:08;;;;;;;9.02;3.38;;;14.40;80.60;;;;;;5057939;28;20463;-83
2021/10/07 06:27:34;;;;;;;6.60;3.00;;;14.50;80.60;;;;;;5078160;28;20056;-83
2021/10/07 06:29:59;;;;;;;14.20;3.83;;;14.40;80.40;;;;;;5045788;28;20507;-83
2021/10/07 06:32:25;;;;;;;9.13;3.53;;;14.40;80.90;;;;;;5037927;28;20025;-83
2021/10/07 06:34:51;;;;;;;6.95;3.25;;;14.50;80.70;;;;;;5037862;28;20025;-83
2021/10/07 06:37:16;;;;;;;7.90;2.45;;;14.50;80.80;;;;;;5037794;28;20030;-83
2021/10/07 06:39:42;;;;;;;6.47;2.83;;;14.50;80.80;;;;;;5037857;28;20038;-83
2021/10/07 06:42:08;;;;;;;5.85;2.80;;;14.50;80.80;;;;;;5036463;28;20116;-83
2021/10/07 06:44:34;;;;;;;7.18;3.28;;;14.60;80.60;;;;;;5036410;28;20030;-83
2021/10/07 06:46:59;;;;;;;9.23;2.92;;;14.60;80.80;;;;;;5037454;28;20017;-83
2021/10/07 06:49:25;;;;;;;7.95;2.90;;;14.60;80.80;;;;;;5047521;28;20041;-84
2021/10/07 06:51:51;;;;;;;11.30;3.15;;;14.60;80.90;;;;;;5037549;28;20425;-83
2021/10/07 06:54:16;;;;;;;4.97;2.95;;;14.60;81.10;;;;;;5036939;28;20557;-83
2021/10/07 06:56:42;;;;;;;8.00;2.72;;;14.70;81.00;;;;;;5037674;28;20041;-84
2021/10/07 06:59:08;;;;;;;9.48;3.28;;;14.60;81.20;;;;;;5037100;28;20690;-83
2021/10/07 07:01:33;;;;;;;5.50;2.70;;;14.50;81.60;;;;;;5037356;28;20087;-84
2021/10/07 07:03:59;;;;;;;9.05;2.97;;;14.60;81.60;;;;;;5037525;28;20021;-83
2021/10/07 07:06:25;;;;;;;9.30;2.80;;;14.60;81.70;;;;;;5036133;28;20034;-83
2021/10/07 07:08:52;;;;;;;8.13;3.50;;;14.60;81.80;;;;;;5037154;28;20399;-84
2021/10/07 07:11:18;;;;;;;6.00;2.97;;;14.70;82.20;;;;;;5035899;28;20076;-83
2021/10/07 07:13:44;;;;;;;7.85;3.75;;;14.60;82.40;;;;;;5037222;28;20045;-83
2021/10/07 07:16:10;;;;;;;8.55;3.65;;;14.70;82.40;;;;;;5036880;28;20037;-83
2021/10/07 07:18:36;;;;;;;9.93;3.47;;;14.60;82.80;;;;;;5037137;28;20033;-83
2021/10/07 07:21:03;;;;;;;8.27;4.28;;;14.70;82.60;;;;;;5037067;28;20523;-83
2021/10/07 07:23:29;;;;;;;10.25;3.88;;;14.70;82.60;;;;;;5037059;28;20022;-83
2021/10/07 07:25:55;;;;;;;10.20;3.95;;;14.70;83.00;;;;;;5072467;28;20029;-83
2021/10/07 07:28:21;;;;;;;6.25;4.13;;;14.70;82.80;;;;;;5068151;28;20565;-83
2021/10/07 07:30:49;;;;;;;13.63;4.80;;;14.80;82.80;;;;;;5036616;28;20040;-83
2021/10/07 07:33:17;;;;;;;11.40;3.78;;;14.80;82.90;;;;;;5036720;28;20088;-83
2021/10/07 07:35:43;;;;;;;5.97;3.67;;;14.80;82.70;;;;;;5036789;28;20036;-84
2021/10/07 07:38:09;;;;;;;7.07;3.30;;;15.00;82.80;;;;;;5036736;28;20018;-83
2021/10/07 07:40:35;;;;;;;11.23;3.67;;;14.90;82.80;;;;;;5036750;28;20808;-84
2021/10/07 07:43:01;;;;;;;8.10;3.60;;;14.90;83.00;;;;;;5036351;28;20040;-83
2021/10/07 07:45:27;;;;;;;9.75;3.60;;;14.90;83.20;;;;;;5036683;28;20384;-84
2021/10/07 07:47:53;;;;;;;10.10;4.00;;;14.90;83.30;;;;;;5036422;28;20050;-84
2021/10/07 07:50:21;;;;;;;5.57;3.80;;;14.90;83.50;;;;;;5036607;28;20112;-83
2021/10/07 07:52:47;;;;;;;11.93;4.30;;;15.00;83.10;;;;;;5036295;28;20025;-84
2021/10/07 07:55:14;;;;;;;5.25;3.65;;;15.10;82.90;;;;;;5036541;28;20035;-84
2021/10/07 07:57:40;;;;;;;11.25;4.28;;;15.20;82.70;;;;;;5036455;28;20041;-83
2021/10/07 08:00:07;;;;;;;13.88;5.65;;;15.30;82.50;;;;;;5035974;28;20029;-84
2021/10/07 08:02:32;;;;;;;14.52;6.38;;;15.40;82.60;;;;;;5036186;28;20104;-83
2021/10/07 08:04:58;;;;;;;15.23;6.75;;;15.40;82.50;;;;;;5035781;28;20049;-83
2021/10/07 08:07:24;;;;;;;18.55;8.40;;;15.40;82.30;;;;;;5035688;28;20028;-83
2021/10/07 08:09:49;;;;;;;14.93;6.70;;;15.40;82.60;;;;;;5036504;28;20491;-83
2021/10/07 08:12:16;;;;;;;20.38;7.30;;;15.40;82.30;;;;;;5036231;28;20033;-83
2021/10/07 08:14:47;;;;;;;24.75;9.38;;;15.40;82.50;;;;;;5036164;28;20029;-83
2021/10/07 08:17:15;;;;;;;26.42;10.25;;;15.30;82.60;;;;;;5035774;28;20033;-83
2021/10/07 08:19:42;;;;;;;28.52;10.98;;;15.30;82.90;;;;;;5035830;28;20082;-83
2021/10/07 08:22:08;;;;;;;29.35;11.13;;;15.20;83.20;;;;;;5035865;28;20017;-83
2021/10/07 08:24:35;;;;;;;18.30;8.45;;;15.30;83.10;;;;;;5049104;28;20031;-84
2021/10/07 08:27:03;;;;;;;11.20;6.25;;;15.30;83.00;;;;;;5069311;28;20025;-83
2021/10/07 08:29:29;;;;;;;12.20;6.43;;;15.30;83.30;;;;;;5035767;28;20381;-83
2021/10/07 08:31:55;;;;;;;12.65;6.00;;;15.40;83.20;;;;;;5035819;28;20041;-83
2021/10/07 08:34:21;;;;;;;18.75;7.38;;;15.50;82.90;;;;;;5035604;28;20029;-84
2021/10/07 08:36:47;;;;;;;20.60;6.50;;;15.40;83.10;;;;;;5035701;28;20025;-83
2021/10/07 08:39:15;;;;;;;14.02;5.95;;;15.50;83.30;;;;;;5035506;28;20387;-83
2021/10/07 08:41:45;;;;;;;19.10;5.93;;;15.50;82.80;;;;;;5035561;28;20383;-83
2021/10/07 08:44:12;;;;;;;12.20;5.13;;;15.50;83.00;;;;;;5035652;28;20028;-84
2021/10/07 08:46:40;;;;;;;13.15;4.80;;;15.50;83.10;;;;;;5034169;28;20069;-84
2021/10/07 08:49:13;;;;;;;12.13;5.22;;;15.70;83.10;;;;;;5035449;28;20115;-83
2021/10/07 08:51:40;;;;;;;11.75;4.07;;;15.60;83.40;;;;;;5035540;28;20034;-84
2021/10/07 08:54:05;;;;;;;11.32;4.63;;;15.70;82.70;;;;;;5035425;28;20036;-83
2021/10/07 08:56:31;;;;;;;14.25;5.35;;;15.60;83.30;;;;;;5035655;28;20033;-84
2021/10/07 08:59:00;;;;;;;14.35;4.72;;;15.70;83.30;;;;;;5035511;28;20036;-83
2021/10/07 09:01:40;;;;;;;14.38;4.68;;;15.80;83.30;;;;;;5035323;28;20018;-83
2021/10/07 09:04:25;;;;;;;14.48;5.57;;;15.80;83.10;;;;;;5035348;28;20045;-83
2021/10/07 09:07:04;;;;;;;16.90;6.40;;;15.70;83.20;;;;;;5035362;28;20068;-83
2021/10/07 09:09:32;;;;;;;15.63;5.72;;;15.80;83.20;;;;;;5033830;28;20392;-83
2021/10/07 09:12:03;;;;;;;12.48;4.90;;;15.80;83.10;;;;;;5035342;28;20044;-83
2021/10/07 09:14:35;;;;;;;12.27;5.90;;;15.80;83.00;;;;;;5035094;28;20017;-83
2021/10/07 09:17:02;;;;;;;13.85;5.78;;;15.80;83.10;;;;;;5036090;28;20040;-84
2021/10/07 09:19:37;;;;;;;18.90;7.22;;;15.90;83.00;;;;;;5038088;28;20026;-83
2021/10/07 09:22:15;;;;;;;12.18;5.53;;;16.00;83.40;;;;;;5038077;28;20030;-84
2021/10/07 09:24:51;;;;;;;15.52;5.88;;;16.10;83.10;;;;;;5054307;28;20090;-82
2021/10/07 09:27:23;;;;;;;17.10;6.53;;;16.30;82.90;;;;;;5079205;28;20040;-84
2021/10/07 09:29:54;;;;;;;13.40;4.97;;;16.30;82.90;;;;;;5079043;28;20103;-84
2021/10/07 09:32:39;;;;;;;13.85;5.82;;;16.30;82.90;;;;;;5056290;28;20452;-84
2021/10/07 09:35:08;;;;;;;12.23;5.68;;;16.50;82.60;;;;;;5039049;28;20025;-83
2021/10/07 09:37:36;;;;;;;9.52;5.07;;;16.40;82.10;;;;;;5039325;28;20831;-83
2021/10/07 09:40:16;;;;;;;14.27;6.18;;;16.40;82.40;;;;;;5047924;28;20402;-83
2021/10/07 09:42:46;;;;;;;;;;;16.50;82.30;;;;;;5039239;28;20044;-83
2021/10/07 09:45:16;;;;;;;13.82;5.07;;;16.50;82.40;;;;;;5039203;28;19905;-84
2021/10/07 09:47:56;;;;;;;12.05;5.57;;;16.50;82.20;;;;;;5048818;28;20128;-83
2021/10/07 09:50:28;;;;;;;14.57;5.33;;;16.60;82.30;;;;;;5058766;28;20033;-84
2021/10/07 09:53:02;;;;;;;10.20;4.90;;;16.60;82.20;;;;;;5058720;28;20267;-83
2021/10/07 09:55:32;;;;;;;10.77;4.57;;;16.60;82.20;;;;;;5049890;28;20566;-83
2021/10/07 09:58:01;;;;;;;8.20;4.60;;;16.60;82.20;;;;;;5038662;28;20159;-83
2021/10/07 10:00:35;;;;;;;13.68;5.28;;;16.70;82.10;;;;;;5038578;28;20033;-83
2021/10/07 10:03:02;;;;;;;13.05;5.97;;;16.80;81.80;;;;;;5038629;28;20569;-83
2021/10/07 10:05:30;;;;;;;9.85;4.93;;;16.90;81.60;;;;;;5038091;28;20060;-83
2021/10/07 10:07:56;;;;;;;10.50;5.07;;;17.00;81.60;;;;;;5038433;28;20068;-84
2021/10/07 10:10:22;;;;;;;15.63;5.18;;;17.10;81.30;;;;;;5037970;28;20539;-83
2021/10/07 10:12:48;;;;;;;11.80;5.85;;;17.10;80.90;;;;;;5055819;28;20047;-83
2021/10/07 10:15:19;;;;;;;15.48;5.57;;;17.10;80.90;;;;;;5056875;28;20029;-84
2021/10/07 10:17:45;;;;;;;11.70;5.20;;;17.10;80.90;;;;;;5058232;28;20108;-84
2021/10/07 10:20:20;;;;;;;12.68;5.70;;;17.10;81.00;;;;;;5058116;28;20063;-84
2021/10/07 10:22:59;;;;;;;10.70;6.03;;;17.10;81.10;;;;;;5038042;28;20075;-84
2021/10/07 10:25:27;;;;;;;11.75;5.32;;;17.10;81.10;;;;;;5070421;28;20093;-84
2021/10/07 10:27:56;;;;;;;11.25;5.32;;;17.10;81.00;;;;;;5077508;28;20044;-84
2021/10/07 10:30:29;;;;;;;9.35;5.05;;;17.10;81.00;;;;;;5076304;28;20084;-83
2021/10/07 10:32:58;;;;;;;12.98;5.03;;;17.10;81.10;;;;;;5037862;28;20521;-84
2021/10/07 10:35:36;;;;;;;12.13;5.15;;;17.10;80.80;;;;;;5038040;28;20480;-84
2021/10/07 10:38:06;;;;;;;7.55;4.35;;;17.10;80.60;;;;;;5037839;28;20040;-84
2021/10/07 10:40:31;;;;;;;12.70;4.93;;;17.20;81.20;;;;;;5037562;28;20081;-83
2021/10/07 10:43:19;;;;;;;8.00;4.47;;;17.30;80.90;;;;;;5052763;28;20021;-84
2021/10/07 10:45:53;;;;;;;7.93;4.43;;;17.30;80.60;;;;;;5037803;28;20029;-84
2021/10/07 10:48:41;;;;;;;10.07;4.53;;;17.30;80.70;;;;;;5037706;28;20037;-83
2021/10/07 10:51:13;;;;;;;7.43;3.80;;;17.30;80.60;;;;;;5037577;28;20217;-84
2021/10/07 10:53:57;;;;;;;9.57;5.88;;;17.30;81.00;;;;;;5037296;28;20021;-84
2021/10/07 10:56:23;;;;;;;8.40;4.03;;;17.30;80.80;;;;;;5037465;28;20392;-84
2021/10/07 10:59:21;;;;;;;10.18;4.97;;;17.30;81.00;;;;;;5037540;28;20025;-84
2021/10/07 11:02:32;;;;;;;7.15;3.90;;;17.50;81.30;;;;;;5037518;28;20497;-84
2021/10/07 11:04:58;;;;;;;8.00;4.72;;;17.50;80.80;;;;;;5036555;28;20034;-84
2021/10/07 11:07:29;;;;;;;6.07;3.58;;;17.40;80.90;;;;;;5037145;28;20052;-84
2021/10/07 11:10:04;;;;;;;10.35;4.75;;;17.40;81.30;;;;;;5057176;28;20029;-84
2021/10/07 11:12:33;;;;;;;17.48;4.50;;;17.50;81.40;;;;;;5055697;28;20061;-84
2021/10/07 11:14:59;;;;;;;7.15;4.28;;;17.50;81.70;;;;;;5042465;28;20044;-84
2021/10/07 11:17:29;;;;;;;9.15;3.80;;;17.60;81.80;;;;;;5035850;28;20041;-84
2021/10/07 11:19:55;;;;;;;;;;;17.60;81.90;;;;;;5037594;28;20052;-84
2021/10/07 11:22:23;;;;;;;9.93;4.28;;;17.60;81.20;;;;;;5037146;28;19905;-84
2021/10/07 11:24:55;;;;;;;6.20;3.53;;;17.60;81.30;;;;;;5053217;28;20028;-84
2021/10/07 11:27:32;;;;;;;5.50;3.00;;;17.70;81.30;;;;;;5054126;28;20033;-84
2021/10/07 11:29:57;;;;;;;9.60;3.03;;;17.70;81.40;;;;;;5035522;28;20033;-84
2021/10/07 11:32:23;;;;;;;7.05;2.60;;;17.80;80.90;;;;;;5036806;28;20083;-83
2021/10/07 11:35:11;;;;;;;10.13;2.88;;;17.80;80.70;;;;;;5036662;28;20502;-83
2021/10/07 11:37:51;;;;;;;7.30;2.80;;;17.90;80.80;;;;;;5036817;28;20040;-83
2021/10/07 11:40:41;;;;;;;7.65;3.13;;;17.90;80.70;;;;;;5036367;28;20034;-84
2021/10/07 11:43:13;;;;;;;6.00;2.85;;;18.00;80.40;;;;;;5036109;28;20033;-84
2021/10/07 11:45:44;;;;;;;6.07;3.15;;;18.00;80.20;;;;;;5035251;28;20079;-84
2021/10/07 11:48:11;;;;;;;8.95;3.50;;;18.00;80.00;;;;;;5036505;28;20056;-83
2021/10/07 11:50:39;;;;;;;6.90;3.60;;;18.10;80.00;;;;;;5036569;28;20605;-83
2021/10/07 11:53:07;;;;;;;6.80;3.00;;;18.20;80.10;;;;;;5047170;28;20087;-83
2021/10/07 11:55:33;;;;;;;6.85;3.17;;;18.40;79.60;;;;;;5036458;28;20061;-84
2021/10/07 11:58:00;;;;;;;6.63;3.05;;;18.50;78.40;;;;;;5036249;28;20018;-84
2021/10/07 12:00:38;;;;;;;5.47;3.00;;;18.50;78.40;;;;;;5036470;28;20033;-83
2021/10/07 12:03:13;;;;;;;5.07;3.05;;;18.60;77.90;;;;;;5036409;28;20021;-84
2021/10/07 12:05:40;;;;;;;4.45;2.85;;;18.70;78.00;;;;;;5036238;28;20025;-83
2021/10/07 12:08:10;;;;;;;4.28;2.53;;;18.80;77.40;;;;;;5036326;28;20427;-84
2021/10/07 12:10:46;;;;;;;7.90;3.00;;;18.90;78.20;;;;;;5035946;28;20128;-83
2021/10/07 12:13:33;;;;;;;8.05;3.10;;;19.10;77.60;;;;;;5051201;28;20080;-84
2021/10/07 12:16:00;;;;;;;7.47;2.20;;;19.30;77.00;;;;;;5036003;28;20037;-83
2021/10/07 12:18:27;;;;;;;6.40;2.45;;;19.40;75.50;;;;;;5035980;28;20492;-83
2021/10/07 12:21:02;;;;;;;6.97;2.25;;;19.40;75.20;;;;;;5036098;28;20036;-83
2021/10/07 12:23:29;;;;;;;4.18;1.80;;;19.50;75.90;;;;;;5035911;28;20021;-84
2021/10/07 12:25:59;;;;;;;2.83;1.83;;;19.40;75.10;;;;;;5071444;28;20033;-83
2021/10/07 12:28:25;;;;;;;3.30;1.90;;;19.40;75.90;;;;;;5067887;28;20041;-83
2021/10/07 12:31:03;;;;;;;6.65;2.00;;;19.50;75.50;;;;;;5034300;28;20743;-83
2021/10/07 12:33:32;;;;;;;3.90;2.00;;;19.50;74.60;;;;;;5034466;28;20025;-82
2021/10/07 12:36:05;;;;;;;5.70;2.15;;;19.40;75.50;;;;;;5035876;28;20112;-83
2021/10/07 12:38:54;;;;;;;6.82;2.30;;;19.40;75.30;;;;;;5035757;28;20036;-83
2021/10/07 12:41:35;;;;;;;3.20;1.80;;;19.40;75.20;;;;;;5035568;28;20395;-83
2021/10/07 12:44:01;;;;;;;6.78;1.75;;;19.30;75.60;;;;;;5035134;28;20021;-83
2021/10/07 12:46:28;;;;;;;4.32;1.70;;;19.10;75.80;;;;;;5035625;28;20116;-83
2021/10/07 12:48:56;;;;;;;5.03;1.52;;;19.20;76.00;;;;;;5040836;28;20103;-83
2021/10/07 12:51:34;;;;;;;3.42;1.70;;;19.30;75.80;;;;;;5053674;28;20033;-83
2021/10/07 12:54:00;;;;;;;4.75;1.63;;;19.40;76.00;;;;;;5055461;28;20053;-83
2021/10/07 12:56:31;;;;;;;6.50;2.40;;;19.60;75.60;;;;;;5054560;28;20061;-83
2021/10/07 12:59:02;;;;;;;10.38;2.00;;;19.80;75.10;;;;;;5035313;28;20022;-83